Time;durP1;ratioP1;P1;durP2;ratioP2;P2;SDS_P1;SDS_P2;PMS_P1;PMS_P2;Temp;Humidity;BMP_temperature;BMP_pressure;BME280_temperature;BME280_humidity;BME280_pressure;Samples;Min_cycle;Max_cycle;Signal;HPM_P1;HPM_P2
2022/01/23 00:00:07;;;;;;;;;;;;;;;14.51;63.77;103179.03;1053986;28;704;-60
2022/01/23 00:01:07;;;;;;;;;;;;;;;14.53;63.66;103176.28;1053939;28;782;-60
2022/01/23 00:02:14;;;;;;;;;;;;;;;14.53;63.98;103178.97;1052861;28;662;-60
2022/01/23 00:03:09;;;;;;;;;;;;;;;14.53;63.16;103176.28;1056580;28;1643;-60
2022/01/23 00:03:59;;;;;;;;;;;;;;;14.53;63.73;103181.66;1054640;28;736;-60
2022/01/23 00:04:50;;;;;;;;;;;;;;;14.53;63.87;103181.66;1053949;28;938;-60
2022/01/23 00:05:42;;;;;;;;;;;;;;;14.53;63.10;103181.66;1053983;28;728;-60
2022/01/23 00:06:33;;;;;;;;;;;;;;;14.53;63.29;103170.91;1054034;28;706;-61
2022/01/23 00:07:25;;;;;;;;;;;;;;;14.52;63.28;103170.06;1053876;28;1027;-61
2022/01/23 00:08:19;;;;;;;;;;;;;;;14.52;63.69;103178.09;1053910;28;609;-60
2022/01/23 00:09:09;;;;;;;;;;;;;;;14.52;63.18;103175.41;1053997;28;724;-61
2022/01/23 00:10:00;;;;;;;;;;;;;;;14.51;63.24;103173.66;1053918;28;618;-61
2022/01/23 00:10:52;;;;;;;;;;;;;;;14.50;63.42;103171.97;1053944;28;732;-60
2022/01/23 00:11:48;;;;;;;;;;;;;;;14.52;63.31;103169.19;1053945;28;1097;-60
2022/01/23 00:12:50;;;;;;;;;;;;;;;14.52;63.63;103179.91;1054072;28;645;-60
2022/01/23 00:18:04;;;;;;;;;;;;;;;14.49;63.62;103170.22;1055731;28;1826;-60
2022/01/23 00:18:54;;;;;;;;;;;;;;;14.50;63.56;103168.41;1057606;28;618;-60
2022/01/23 00:19:45;;;;;;;;;;;;;;;14.50;62.88;103179.13;1057620;28;798;-60
2022/01/23 00:20:35;;;;;;;;;;;;;;;14.49;63.96;103172.91;1053987;28;621;-60
2022/01/23 00:21:26;;;;;;;;;;;;;;;14.48;64.55;103173.84;1053938;28;748;-60
2022/01/23 00:22:17;;;;;;;;;;;;;;;14.48;63.28;103167.59;1053921;28;1012;-60
2022/01/23 00:23:15;;;;;;;;;;;;;;;14.46;63.67;103175.72;1053352;28;613;-60
2022/01/23 00:30:43;;;;;;;;;;;;;;;14.49;64.07;103183.63;1054534;28;569;-60
2022/01/23 00:31:35;;;;;;;;;;;;;;;14.48;63.12;103181.88;1053443;28;656;-60
2022/01/23 00:32:26;;;;;;;;;;;;;;;14.48;63.00;103181.00;1054418;28;1955;-60
2022/01/23 00:33:16;;;;;;;;;;;;;;;14.49;63.17;103180.06;1053825;28;700;-60
2022/01/23 00:34:06;;;;;;;;;;;;;;;14.47;63.29;103172.09;1053930;28;796;-61
2022/01/23 00:34:57;;;;;;;;;;;;;;;14.48;63.67;103179.19;1053903;28;621;-61
2022/01/23 00:35:47;;;;;;;;;;;;;;;14.48;63.42;103178.31;1053996;28;614;-61
2022/01/23 00:36:38;;;;;;;;;;;;;;;14.47;63.56;103179.25;1053912;28;715;-60
2022/01/23 00:37:28;;;;;;;;;;;;;;;14.46;63.59;103178.38;1053973;28;685;-60
2022/01/23 00:38:19;;;;;;;;;;;;;;;14.46;63.07;103175.72;1051357;28;1548;-60
2022/01/23 00:39:09;;;;;;;;;;;;;;;14.47;63.42;103171.22;1053672;28;617;-60
2022/01/23 00:39:59;;;;;;;;;;;;;;;14.46;63.98;103172.16;1058117;28;707;-60
2022/01/23 00:40:50;;;;;;;;;;;;;;;14.45;63.51;103167.72;1058099;28;719;-61
2022/01/23 00:41:40;;;;;;;;;;;;;;;14.45;63.46;103173.97;1057068;28;825;-61
2022/01/23 00:42:31;;;;;;;;;;;;;;;14.45;63.38;103168.59;1057483;28;854;-61
2022/01/23 00:43:30;;;;;;;;;;;;;;;14.46;63.72;103175.72;1057406;28;672;-62
2022/01/23 00:44:20;;;;;;;;;;;;;;;14.46;63.88;103164.09;1057538;28;850;-62
2022/01/23 00:47:12;;;;;;;;;;;;;;;14.45;63.31;103178.47;1058082;28;639;-61
2022/01/23 00:48:04;;;;;;;;;;;;;;;14.45;63.91;103178.47;1057708;28;660;-60
2022/01/23 00:49:48;;;;;;;;;;;;;;;14.45;63.62;103183.81;1058891;28;625;-61
2022/01/23 00:50:38;;;;;;;;;;;;;;;14.45;64.02;103178.47;1058345;28;876;-61
2022/01/23 00:51:29;;;;;;;;;;;;;;;14.43;63.90;103175.84;1058271;28;614;-61
2022/01/23 00:52:19;;;;;;;;;;;;;;;14.42;64.08;103179.47;1058117;28;1914;-61
2022/01/23 00:53:10;;;;;;;;;;;;;;;14.43;64.03;103183.88;1055664;28;1781;-61
2022/01/23 00:54:01;;;;;;;;;;;;;;;14.44;63.97;103185.63;1054195;28;625;-61
2022/01/23 00:54:51;;;;;;;;;;;;;;;14.45;63.50;103189.19;1054515;28;726;-61
2022/01/23 00:55:41;;;;;;;;;;;;;;;14.44;63.59;103174.03;1054718;28;702;-60
2022/01/23 00:56:32;;;;;;;;;;;;;;;14.46;63.95;103185.56;1054787;28;775;-61
2022/01/23 00:57:23;;;;;;;;;;;;;;;14.44;63.77;103182.94;1055067;28;1778;-60
2022/01/23 00:58:13;;;;;;;;;;;;;;;14.43;63.57;103181.22;1058241;28;637;-61
2022/01/23 00:59:04;;;;;;;;;;;;;;;14.43;64.64;103181.22;1058186;28;768;-60
2022/01/23 00:59:54;;;;;;;;;;;;;;;14.43;63.22;103183.00;1058315;28;610;-60
2022/01/23 01:00:45;;;;;;;;;;;;;;;14.44;63.67;103182.94;1058387;28;685;-61
2022/01/23 01:01:35;;;;;;;;;;;;;;;14.43;63.67;103175.84;1058225;28;739;-61
2022/01/23 01:02:25;;;;;;;;;;;;;;;14.43;64.18;103175.84;1058243;28;674;-60
2022/01/23 01:03:16;;;;;;;;;;;;;;;14.44;63.82;103176.72;1058627;28;772;-61
2022/01/23 01:04:06;;;;;;;;;;;;;;;14.43;63.96;103173.16;1058206;28;768;-61
2022/01/23 01:04:57;;;;;;;;;;;;;;;14.43;63.55;103180.34;1058298;28;630;-61
2022/01/23 01:05:47;;;;;;;;;;;;;;;14.43;64.12;103181.22;1058237;28;649;-61
2022/01/23 01:06:38;;;;;;;;;;;;;;;14.44;64.13;103182.06;1058364;28;708;-61
2022/01/23 01:07:28;;;;;;;;;;;;;;;14.43;63.61;103175.84;1058081;28;939;-61
2022/01/23 01:08:18;;;;;;;;;;;;;;;14.41;64.60;103174.16;1058190;28;669;-61
2022/01/23 01:09:11;;;;;;;;;;;;;;;14.41;64.07;103176.84;1059209;27;645;-61
2022/01/23 01:10:08;;;;;;;;;;;;;;;14.40;64.40;103172.38;1058189;28;754;-60
2022/01/23 01:11:58;;;;;;;;;;;;;;;14.40;64.03;103180.44;1058565;28;843;-61
2022/01/23 01:12:50;;;;;;;;;;;;;;;14.40;64.49;103175.97;1058009;28;1759;-58
2022/01/23 01:31:19;;;;;;;;;;;;;;;14.37;64.93;103172.50;1058710;28;747;-62
2022/01/23 01:32:14;;;;;;;;;;;;;;;14.38;64.41;103168.88;1058093;28;1962;-62
2022/01/23 01:33:18;;;;;;;;;;;;;;;14.37;64.38;103181.44;1057991;28;646;-62
2022/01/23 01:35:26;;;;;;;;;;;;;;;14.37;63.80;103175.19;1058729;28;834;-62
2022/01/23 01:37:09;;;;;;;;;;;;;;;14.37;64.45;103181.44;1059198;27;906;-63
2022/01/23 01:38:00;;;;;;;;;;;;;;;14.36;64.28;103176.13;1058707;28;664;-63
2022/01/23 01:38:50;;;;;;;;;;;;;;;14.37;64.27;103183.25;1058631;28;843;-62
2022/01/23 01:39:41;;;;;;;;;;;;;;;14.37;64.07;103180.56;1058776;28;733;-63
2022/01/23 01:40:31;;;;;;;;;;;;;;;14.36;64.14;103177.00;1057526;28;705;-62
2022/01/23 01:41:22;;;;;;;;;;;;;;;14.36;64.14;103178.81;1058220;28;660;-63
2022/01/23 01:42:12;;;;;;;;;;;;;;;14.36;64.80;103171.63;1058672;28;668;-63
2022/01/23 01:43:02;;;;;;;;;;;;;;;14.37;64.40;103180.56;1057976;28;953;-63
2022/01/23 01:43:53;;;;;;;;;;;;;;;14.37;64.06;103176.06;1058605;28;834;-63
2022/01/23 01:44:43;;;;;;;;;;;;;;;14.38;64.63;103176.94;1059376;27;609;-62
2022/01/23 01:45:34;;;;;;;;;;;;;;;14.37;63.90;103175.19;1057684;28;638;-62
2022/01/23 01:46:25;;;;;;;;;;;;;;;14.38;64.45;103176.94;1054526;28;712;-63
2022/01/23 01:47:15;;;;;;;;;;;;;;;14.38;64.84;103179.63;1054394;28;854;-63
2022/01/23 01:48:06;;;;;;;;;;;;;;;14.37;64.64;103185.91;1054276;28;638;-63
2022/01/23 01:48:56;;;;;;;;;;;;;;;14.35;64.55;103177.06;1054371;28;717;-63
2022/01/23 01:49:47;;;;;;;;;;;;;;;14.35;64.52;103174.38;1054408;28;635;-62
2022/01/23 01:50:43;;;;;;;;;;;;;;;14.34;64.93;103173.50;1054462;28;689;-63
2022/01/23 01:51:34;;;;;;;;;;;;;;;14.33;64.30;103169.06;1053872;28;761;-62
2022/01/23 01:52:24;;;;;;;;;;;;;;;14.33;64.53;103163.72;1056055;28;1905;-63
2022/01/23 01:53:15;;;;;;;;;;;;;;;14.33;65.02;103174.44;1057979;28;768;-64
2022/01/23 01:54:11;;;;;;;;;;;;;;;14.34;64.64;103161.91;1057990;28;719;-64
2022/01/23 01:55:05;;;;;;;;;;;;;;;14.33;64.63;103155.66;1058048;28;712;-62
2022/01/23 01:55:57;;;;;;;;;;;;;;;14.34;64.38;103148.50;1057978;28;786;-62
2022/01/23 01:57:05;;;;;;;;;;;;;;;14.34;65.00;103156.53;1058059;28;719;-61
2022/01/23 01:58:01;;;;;;;;;;;;;;;14.34;65.26;103153.84;1058606;28;649;-61
2022/01/23 02:00:47;;;;;;;;;;;;;;;14.32;65.40;103159.31;1058620;28;790;-60
2022/01/23 02:09:14;;;;;;;;;;;;;;;14.32;65.21;103172.72;1054337;28;685;-59
2022/01/23 02:10:04;;;;;;;;;;;;;;;14.33;64.38;103178.97;1054279;28;949;-60
2022/01/23 02:10:59;;;;;;;;;;;;;;;14.34;64.47;103175.31;1053806;28;756;-60
2022/01/23 02:17:13;;;;;;;;;;;;;;;14.31;64.74;103179.03;1054268;28;740;-61
2022/01/23 02:23:21;;;;;;;;;;;;;;;14.29;65.53;103166.63;1058323;28;1753;-61
2022/01/23 02:51:29;;;;;;;;;;;;;;;14.25;66.06;103180.16;1054050;28;1307;-62
2022/01/23 02:55:20;;;;;;;;;;;;;;;14.24;65.14;103165.00;1054158;28;720;-61
2022/01/23 02:56:20;;;;;;;;;;;;;;;14.24;64.64;103175.72;1053522;28;746;-61
2022/01/23 02:57:12;;;;;;;;;;;;;;;14.24;65.21;103167.69;1053473;28;1327;-61
2022/01/23 02:58:05;;;;;;;;;;;;;;;14.24;65.39;103169.50;1053851;28;1685;-61
2022/01/23 02:59:00;;;;;;;;;;;;;;;14.25;64.79;103176.59;1054139;28;739;-61
2022/01/23 02:59:51;;;;;;;;;;;;;;;14.23;65.81;103165.94;1054144;28;803;-61
2022/01/23 03:01:06;;;;;;;;;;;;;;;14.23;65.74;103178.47;1054209;28;756;-61
2022/01/23 03:03:09;;;;;;;;;;;;;;;14.20;66.32;103168.75;1054040;28;643;-61
2022/01/23 03:04:04;;;;;;;;;;;;;;;14.21;66.12;103169.63;1054047;28;836;-61
2022/01/23 03:05:00;;;;;;;;;;;;;;;14.20;66.46;103175.94;1054112;28;711;-60
2022/01/23 03:06:16;;;;;;;;;;;;;;;14.21;65.69;103172.31;1049075;28;645;-61
2022/01/23 03:10:59;;;;;;;;;;;;;;;14.20;66.32;103159.84;1053947;28;800;-61
2022/01/23 03:13:56;;;;;;;;;;;;;;;14.20;65.28;103174.13;1058363;28;716;-62
2022/01/23 03:14:55;;;;;;;;;;;;;;;14.21;66.29;103178.53;1057737;28;728;-61
2022/01/23 03:16:11;;;;;;;;;;;;;;;14.22;66.04;103176.72;1057785;28;726;-61
2022/01/23 03:24:13;;;;;;;;;;;;;;;14.19;65.04;103176.84;1058297;28;793;-62
2022/01/23 03:30:01;;;;;;;;;;;;;;;14.19;65.62;103180.41;1055525;28;1920;-62
2022/01/23 03:31:05;;;;;;;;;;;;;;;14.19;65.09;103183.09;1048764;28;763;-61
2022/01/23 03:32:48;;;;;;;;;;;;;;;14.18;66.01;103180.47;1053546;28;773;-62
2022/01/23 03:33:41;;;;;;;;;;;;;;;14.17;65.99;103179.59;1054006;28;829;-62
2022/01/23 03:34:31;;;;;;;;;;;;;;;14.18;66.09;103175.97;1054069;28;717;-62
2022/01/23 03:35:22;;;;;;;;;;;;;;;14.19;65.10;103172.38;1053731;28;847;-62
2022/01/23 03:36:12;;;;;;;;;;;;;;;14.18;66.07;103172.44;1053996;28;1032;-61
2022/01/23 03:37:03;;;;;;;;;;;;;;;14.18;65.58;103173.31;1053936;28;707;-60
2022/01/23 03:37:53;;;;;;;;;;;;;;;14.19;64.95;103174.19;1052729;28;945;-60
2022/01/23 03:38:44;;;;;;;;;;;;;;;14.18;65.28;103175.13;1054115;28;622;-60
2022/01/23 03:39:34;;;;;;;;;;;;;;;14.18;65.50;103175.13;1053373;28;705;-61
2022/01/23 03:40:25;;;;;;;;;;;;;;;14.19;65.38;103176.84;1054005;28;685;-61
2022/01/23 03:41:15;;;;;;;;;;;;;;;14.19;65.52;103171.50;1053500;28;635;-61
2022/01/23 03:42:05;;;;;;;;;;;;;;;14.19;65.87;103176.84;1053781;28;890;-61
2022/01/23 03:43:07;;;;;;;;;;;;;;;14.18;65.17;103172.44;1057149;28;1681;-61
2022/01/23 03:44:00;;;;;;;;;;;;;;;14.17;65.16;103168.88;1057580;28;885;-61
2022/01/23 03:45:37;;;;;;;;;;;;;;;14.17;65.69;103166.19;1057553;28;1979;-61
2022/01/23 03:47:21;;;;;;;;;;;;;;;14.18;65.56;103178.66;1058133;28;712;-62
2022/01/23 03:50:11;;;;;;;;;;;;;;;14.18;65.60;103180.47;1058202;28;845;-61
2022/01/23 03:51:01;;;;;;;;;;;;;;;14.15;65.95;103176.09;1057063;28;1303;-60
2022/01/23 03:51:51;;;;;;;;;;;;;;;14.15;65.41;103175.28;1057019;28;682;-62
2022/01/23 03:52:42;;;;;;;;;;;;;;;14.16;65.40;103182.34;1057744;28;751;-62
2022/01/23 03:53:32;;;;;;;;;;;;;;;14.15;66.18;103178.78;1057669;28;698;-62
2022/01/23 03:54:24;;;;;;;;;;;;;;;14.14;65.48;103179.75;1056952;28;722;-62
2022/01/23 03:55:14;;;;;;;;;;;;;;;14.15;65.84;103186.84;1057532;28;684;-61
2022/01/23 03:56:05;;;;;;;;;;;;;;;14.16;64.90;103179.66;1057472;28;685;-62
2022/01/23 03:56:55;;;;;;;;;;;;;;;14.15;65.85;103196.72;1057546;28;911;-62
2022/01/23 03:57:46;;;;;;;;;;;;;;;14.12;66.62;103189.69;1057704;28;733;-62
2022/01/23 03:58:36;;;;;;;;;;;;;;;14.13;66.19;103187.88;1053320;28;836;-62
2022/01/23 03:59:27;;;;;;;;;;;;;;;14.13;66.04;103188.75;1053499;28;677;-61
2022/01/23 04:00:17;;;;;;;;;;;;;;;14.13;65.75;103187.88;1056605;28;645;-62
2022/01/23 04:01:08;;;;;;;;;;;;;;;14.12;66.10;103186.13;1057686;28;696;-62
2022/01/23 04:01:58;;;;;;;;;;;;;;;14.13;65.13;103182.50;1057529;28;773;-62
2022/01/23 04:02:49;;;;;;;;;;;;;;;14.13;65.81;103188.75;1056906;28;945;-61
2022/01/23 04:03:40;;;;;;;;;;;;;;;14.12;65.23;103187.00;1057581;28;661;-62
2022/01/23 04:04:38;;;;;;;;;;;;;;;14.14;66.00;103193.16;1058326;28;731;-62
2022/01/23 04:05:29;;;;;;;;;;;;;;;14.14;65.07;103190.50;1058224;28;692;-62
2022/01/23 04:06:19;;;;;;;;;;;;;;;14.12;66.22;103195.03;1057625;28;1314;-62
2022/01/23 04:07:10;;;;;;;;;;;;;;;14.12;65.90;103189.69;1057506;28;782;-62
2022/01/23 04:08:00;;;;;;;;;;;;;;;14.11;66.04;103190.63;1058201;28;781;-61
2022/01/23 04:08:51;;;;;;;;;;;;;;;14.10;66.22;103196.91;1057585;28;787;-61
2022/01/23 04:09:42;;;;;;;;;;;;;;;14.11;66.26;103200.47;1057716;28;649;-61
2022/01/23 04:10:32;;;;;;;;;;;;;;;14.12;65.36;103196.84;1058171;28;735;-61
2022/01/23 04:11:23;;;;;;;;;;;;;;;14.11;66.63;103201.34;1057572;28;765;-61
2022/01/23 04:13:29;;;;;;;;;;;;;;;14.14;66.37;103194.97;1058756;28;895;-61
2022/01/23 04:14:22;;;;;;;;;;;;;;;14.12;66.63;103203.09;1057674;28;657;-60
2022/01/23 04:17:54;;;;;;;;;;;;;;;14.12;64.87;103203.09;1058120;28;773;-61
2022/01/23 04:20:52;;;;;;;;;;;;;;;14.10;65.97;103199.59;1053941;28;652;-60
2022/01/23 04:32:21;;;;;;;;;;;;;;;14.08;66.41;103200.59;1055205;28;963;-60
2022/01/23 04:33:27;;;;;;;;;;;;;;;14.08;65.80;103196.09;1055302;28;644;-61
2022/01/23 04:45:11;;;;;;;;;;;;;;;14.08;64.99;103201.47;1042468;28;1025;-60
2022/01/23 04:45:17;;;;;;;;;;;;;;;14.07;66.26;103194.34;1041838;28;651;-60
2022/01/23 04:49:06;;;;;;;;;;;;;;;14.09;65.50;103191.59;1058911;28;823;-60
2022/01/23 05:00:02;;;;;;;;;;;;;;;14.03;66.41;103198.09;1054601;28;704;-61
2022/01/23 05:01:01;;;;;;;;;;;;;;;14.05;66.04;103200.72;1054873;28;1822;-60
2022/01/23 05:04:56;;;;;;;;;;;;;;;14.05;66.41;103206.94;1058758;28;633;-61
2022/01/23 05:05:57;;;;;;;;;;;;;;;14.06;66.29;103199.78;1058387;28;738;-61
2022/01/23 05:06:59;;;;;;;;;;;;;;;14.06;66.11;103207.81;1058321;28;633;-61
2022/01/23 05:07:49;;;;;;;;;;;;;;;14.04;66.52;103202.53;1058230;28;633;-61
2022/01/23 05:08:40;;;;;;;;;;;;;;;14.03;66.71;103207.94;1057296;28;761;-61
2022/01/23 05:09:30;;;;;;;;;;;;;;;14.03;65.82;103203.47;1058802;27;1438;-61
2022/01/23 05:10:21;;;;;;;;;;;;;;;14.04;65.30;103202.53;1058363;28;586;-61
2022/01/23 05:11:12;;;;;;;;;;;;;;;14.04;66.85;103201.66;1058789;28;720;-61
2022/01/23 05:12:03;;;;;;;;;;;;;;;14.03;66.13;103208.81;1058132;28;1364;-60
2022/01/23 05:12:53;;;;;;;;;;;;;;;14.04;65.44;103207.00;1058109;28;2005;-60
2022/01/23 05:13:44;;;;;;;;;;;;;;;14.02;66.09;103200.84;1058201;28;858;-60
2022/01/23 05:14:38;;;;;;;;;;;;;;;14.02;66.89;103204.38;1059367;28;694;-60
2022/01/23 05:15:28;;;;;;;;;;;;;;;14.03;65.74;103200.78;1058365;28;835;-60
2022/01/23 05:16:19;;;;;;;;;;;;;;;14.04;66.23;103204.31;1058823;28;787;-60
2022/01/23 05:17:11;;;;;;;;;;;;;;;14.02;66.11;103201.72;1058111;28;666;-60
2022/01/23 05:18:01;;;;;;;;;;;;;;;14.02;66.70;103204.38;1058051;28;921;-60
2022/01/23 05:18:53;;;;;;;;;;;;;;;14.01;66.38;103194.59;1057626;28;622;-61
2022/01/23 05:19:44;;;;;;;;;;;;;;;14.00;66.47;103197.34;1058174;28;885;-59
2022/01/23 05:20:35;;;;;;;;;;;;;;;13.99;66.16;103196.47;1057799;28;701;-60
2022/01/23 05:21:56;;;;;;;;;;;;;;;14.01;65.69;103199.09;1058144;28;617;-59
2022/01/23 05:22:51;;;;;;;;;;;;;;;14.01;65.72;103197.28;1058125;28;653;-60
2022/01/23 05:23:42;;;;;;;;;;;;;;;14.01;65.42;103193.72;1058236;28;637;-60
2022/01/23 05:24:37;;;;;;;;;;;;;;;14.01;66.09;103197.28;1058199;28;789;-59
2022/01/23 05:25:30;;;;;;;;;;;;;;;14.01;65.83;103199.97;1058260;28;690;-60
2022/01/23 05:26:21;;;;;;;;;;;;;;;14.02;65.83;103196.34;1058018;28;743;-60
2022/01/23 05:27:11;;;;;;;;;;;;;;;14.03;65.55;103200.78;1058577;28;899;-59
2022/01/23 05:28:02;;;;;;;;;;;;;;;14.03;65.68;103198.09;1053352;28;846;-61
2022/01/23 05:28:52;;;;;;;;;;;;;;;14.03;65.17;103195.41;1055092;28;688;-61
2022/01/23 05:29:43;;;;;;;;;;;;;;;14.05;65.31;103196.22;1054596;28;704;-61
2022/01/23 05:30:34;;;;;;;;;;;;;;;14.01;66.07;103197.28;1054610;28;758;-61
2022/01/23 05:31:24;;;;;;;;;;;;;;;14.02;66.47;103195.47;1053976;28;677;-61
2022/01/23 05:32:15;;;;;;;;;;;;;;;14.01;66.23;103199.97;1054835;28;1953;-61
2022/01/23 05:33:05;;;;;;;;;;;;;;;14.01;65.40;103197.28;1054278;28;630;-61
2022/01/23 05:33:56;;;;;;;;;;;;;;;14.01;64.96;103202.63;1054431;28;684;-61
2022/01/23 05:34:47;;;;;;;;;;;;;;;14.01;64.88;103196.41;1054484;28;645;-62
2022/01/23 05:35:38;;;;;;;;;;;;;;;14.02;66.27;103200.84;1053854;28;664;-60
2022/01/23 05:36:28;;;;;;;;;;;;;;;14.00;66.76;103203.56;1054446;28;769;-61
2022/01/23 05:37:19;;;;;;;;;;;;;;;14.01;65.78;103202.63;1055183;28;696;-61
2022/01/23 05:38:09;;;;;;;;;;;;;;;14.02;65.16;103206.19;1054955;28;634;-61
2022/01/23 05:39:00;;;;;;;;;;;;;;;14.03;65.13;103202.59;1055013;28;820;-61
2022/01/23 05:39:50;;;;;;;;;;;;;;;14.03;65.90;103203.47;1055081;28;676;-60
2022/01/23 05:40:42;;;;;;;;;;;;;;;14.06;64.68;103203.34;1054465;28;934;-61
2022/01/23 05:41:33;;;;;;;;;;;;;;;14.10;63.89;103202.28;1053958;28;637;-61
2022/01/23 05:42:23;;;;;;;;;;;;;;;14.13;63.50;103210.19;1054206;28;1812;-62
2022/01/23 05:43:17;;;;;;;;;;;;;;;14.17;63.93;103203.75;1057470;28;649;-61
2022/01/23 05:44:08;;;;;;;;;;;;;;;14.22;63.66;103199.06;1053663;28;645;-61
2022/01/23 05:44:58;;;;;;;;;;;;;;;14.25;63.71;103204.28;1053597;28;936;-61
2022/01/23 05:45:49;;;;;;;;;;;;;;;14.28;63.38;103205.97;1058002;28;598;-62
2022/01/23 05:46:39;;;;;;;;;;;;;;;14.29;63.50;103199.69;1053497;28;642;-61
2022/01/23 05:47:30;;;;;;;;;;;;;;;14.32;63.32;103207.59;1054978;28;916;-62
2022/01/23 05:48:20;;;;;;;;;;;;;;;14.38;62.81;103206.44;1054376;28;724;-61
2022/01/23 05:49:11;;;;;;;;;;;;;;;14.40;62.98;103208.16;1055015;28;732;-62
2022/01/23 05:50:01;;;;;;;;;;;;;;;14.43;62.24;103207.16;1054482;28;769;-62
2022/01/23 05:50:51;;;;;;;;;;;;;;;14.44;62.85;103209.78;1055159;28;645;-62
2022/01/23 05:51:42;;;;;;;;;;;;;;;14.48;62.58;103205.16;1050308;28;621;-61
2022/01/23 05:52:32;;;;;;;;;;;;;;;14.51;62.52;103205.03;1050772;28;1910;-62
2022/01/23 05:53:23;;;;;;;;;;;;;;;14.54;62.77;103211.09;1050796;28;918;-62
2022/01/23 05:54:13;;;;;;;;;;;;;;;14.57;61.83;103207.41;1045267;28;693;-62
2022/01/23 05:55:03;;;;;;;;;;;;;;;14.59;62.40;103205.53;1045799;28;729;-62
2022/01/23 05:55:55;;;;;;;;;;;;;;;14.61;61.96;103192.94;1050020;28;793;-61
2022/01/23 05:56:46;;;;;;;;;;;;;;;14.65;62.18;103197.22;1049655;28;633;-62
2022/01/23 05:57:37;;;;;;;;;;;;;;;14.67;62.06;103198.03;1050714;28;1758;-62
2022/01/23 05:58:27;;;;;;;;;;;;;;;14.70;61.63;103195.19;1054009;28;775;-62
2022/01/23 05:59:20;;;;;;;;;;;;;;;14.70;62.24;103192.50;1053319;28;837;-62
2022/01/23 06:00:10;;;;;;;;;;;;;;;14.72;61.92;103196.00;1051357;28;2023;-62
2022/01/23 06:01:01;;;;;;;;;;;;;;;14.73;62.18;103199.56;1053255;28;621;-62
2022/01/23 06:01:52;;;;;;;;;;;;;;;14.74;62.11;103195.94;1049043;28;744;-62
2022/01/23 06:02:42;;;;;;;;;;;;;;;14.75;61.62;103200.38;1049558;28;672;-62
2022/01/23 06:03:33;;;;;;;;;;;;;;;14.76;62.01;103202.09;1050215;28;849;-63
2022/01/23 06:04:24;;;;;;;;;;;;;;;14.77;61.58;103203.84;1049219;28;634;-63
2022/01/23 06:05:15;;;;;;;;;;;;;;;14.77;62.11;103202.03;1048899;28;677;-63
2022/01/23 06:06:05;;;;;;;;;;;;;;;14.78;61.49;103197.53;1050217;28;696;-63
2022/01/23 06:06:57;;;;;;;;;;;;;;;14.81;61.54;103202.78;1048795;28;1691;-63
2022/01/23 06:07:50;;;;;;;;;;;;;;;14.79;61.58;103194.78;1050131;28;736;-63
2022/01/23 06:08:41;;;;;;;;;;;;;;;14.79;61.56;103200.16;1049100;28;621;-63
2022/01/23 06:09:31;;;;;;;;;;;;;;;14.79;61.61;103197.47;1049192;28;649;-63
2022/01/23 06:10:24;;;;;;;;;;;;;;;14.82;61.73;103197.34;1045480;28;662;-63
2022/01/23 06:11:15;;;;;;;;;;;;;;;14.83;62.03;103203.59;1049268;28;669;-63
2022/01/23 06:12:05;;;;;;;;;;;;;;;14.84;62.15;103200.84;1050620;28;931;-63
2022/01/23 06:12:56;;;;;;;;;;;;;;;14.86;61.80;103201.66;1050709;28;637;-63
2022/01/23 06:13:46;;;;;;;;;;;;;;;14.87;61.36;103197.97;1050755;28;700;-63
2022/01/23 06:14:36;;;;;;;;;;;;;;;14.87;61.56;103206.03;1049562;28;704;-61
2022/01/23 06:15:27;;;;;;;;;;;;;;;14.89;61.18;103198.78;1049612;28;736;-61
2022/01/23 06:16:17;;;;;;;;;;;;;;;14.88;61.45;103196.19;1049508;28;820;-60
2022/01/23 06:17:08;;;;;;;;;;;;;;;14.87;61.94;103203.34;1049405;28;1298;-61
2022/01/23 06:17:58;;;;;;;;;;;;;;;14.87;62.02;103192.63;1053485;28;1741;-61
2022/01/23 06:18:48;;;;;;;;;;;;;;;14.88;62.05;103199.72;1053142;28;625;-61
2022/01/23 06:19:39;;;;;;;;;;;;;;;14.90;61.65;103196.97;1053683;28;762;-61
2022/01/23 06:20:30;;;;;;;;;;;;;;;14.91;61.32;103204.09;1053171;28;656;-61
2022/01/23 06:21:21;;;;;;;;;;;;;;;14.91;61.85;103199.59;1054914;28;775;-60
2022/01/23 06:22:13;;;;;;;;;;;;;;;14.90;61.78;103203.22;1053028;28;677;-61
2022/01/23 06:23:04;;;;;;;;;;;;;;;14.93;61.61;103211.16;1053105;28;664;-62
2022/01/23 06:24:05;;;;;;;;;;;;;;;14.93;61.79;103210.28;1054721;28;648;-61
2022/01/23 06:24:56;;;;;;;;;;;;;;;14.94;61.97;103214.69;1053096;28;705;-60
2022/01/23 06:25:46;;;;;;;;;;;;;;;14.93;61.55;103211.16;1054360;28;824;-61
2022/01/23 06:26:37;;;;;;;;;;;;;;;14.95;61.48;103211.06;1054234;28;924;-60
2022/01/23 06:27:27;;;;;;;;;;;;;;;14.95;61.54;103213.75;1053809;28;739;-60
2022/01/23 06:28:17;;;;;;;;;;;;;;;14.96;61.76;103212.81;1054320;28;621;-60
2022/01/23 06:29:08;;;;;;;;;;;;;;;14.96;61.66;103210.13;1052723;28;1810;-62
2022/01/23 06:29:58;;;;;;;;;;;;;;;14.97;61.39;103208.31;1055108;27;1783;-63
2022/01/23 06:30:49;;;;;;;;;;;;;;;14.98;61.55;103210.06;1050684;28;869;-63
2022/01/23 06:31:39;;;;;;;;;;;;;;;14.99;61.95;103206.44;1053117;28;1610;-62
2022/01/23 06:32:29;;;;;;;;;;;;;;;14.99;62.00;103215.38;1054215;28;1906;-63
2022/01/23 06:33:20;;;;;;;;;;;;;;;15.00;61.69;103214.44;1054188;28;639;-63
2022/01/23 06:34:10;;;;;;;;;;;;;;;15.00;61.93;103217.13;1052466;28;2218;-63
2022/01/23 06:35:01;;;;;;;;;;;;;;;15.00;62.06;103205.50;1050590;28;609;-63
2022/01/23 06:35:51;;;;;;;;;;;;;;;15.01;61.72;103220.66;1054308;28;1743;-63
2022/01/23 06:36:42;;;;;;;;;;;;;;;15.00;61.41;103216.25;1053660;28;869;-63
2022/01/23 06:37:32;;;;;;;;;;;;;;;14.99;61.80;103218.06;1052281;28;1628;-62
2022/01/23 06:38:23;;;;;;;;;;;;;;;14.99;61.67;103210.00;1046823;28;1195;-62
2022/01/23 06:39:13;;;;;;;;;;;;;;;15.01;61.41;103212.63;1049799;28;943;-61
2022/01/23 06:40:03;;;;;;;;;;;;;;;15.01;61.93;103209.94;1054103;28;1519;-61
2022/01/23 06:40:54;;;;;;;;;;;;;;;15.02;61.80;103201.81;1053982;28;1246;-61
2022/01/23 06:41:42;;;;;;;;;;;;;;;15.03;61.79;103200.00;1055621;28;1403;-61
2022/01/23 06:42:31;;;;;;;;;;;;;;;15.04;61.45;103201.75;1053650;28;1402;-61
2022/01/23 06:43:20;;;;;;;;;;;;;;;15.02;61.85;103209.88;1054399;28;917;-61
2022/01/23 06:44:10;;;;;;;;;;;;;;;15.03;61.98;103210.75;1054169;28;1355;-61
2022/01/23 06:44:59;;;;;;;;;;;;;;;15.01;61.43;103208.13;1054340;28;869;-61
2022/01/23 06:45:47;;;;;;;;;;;;;;;15.02;61.61;103209.00;1049688;28;840;-61
2022/01/23 06:46:38;;;;;;;;;;;;;;;15.01;61.44;103210.81;1050043;28;896;-61
2022/01/23 06:47:26;;;;;;;;;;;;;;;14.99;61.44;103211.81;1050110;28;767;-61
2022/01/23 06:48:15;;;;;;;;;;;;;;;14.98;61.50;103210.94;1053556;28;1472;-61
2022/01/23 06:49:05;;;;;;;;;;;;;;;14.97;61.95;103205.63;1054331;28;857;-61
2022/01/23 06:49:53;;;;;;;;;;;;;;;14.97;61.56;103213.69;1054728;28;1356;-61
2022/01/23 06:50:42;;;;;;;;;;;;;;;14.94;61.69;103212.88;1058489;28;823;-61
2022/01/23 06:51:31;;;;;;;;;;;;;;;14.95;62.15;103208.38;1058577;28;888;-61
2022/01/23 06:52:20;;;;;;;;;;;;;;;14.93;61.66;103218.31;1050165;28;1989;-63
2022/01/23 06:53:09;;;;;;;;;;;;;;;14.94;61.88;103222.75;1050049;28;877;-62
2022/01/23 06:53:58;;;;;;;;;;;;;;;14.92;61.08;103217.44;1051176;28;1518;-62
2022/01/23 06:54:46;;;;;;;;;;;;;;;14.93;61.47;103224.56;1054354;28;846;-62
2022/01/23 06:55:35;;;;;;;;;;;;;;;14.92;61.56;103222.81;1054141;28;753;-62
2022/01/23 06:56:24;;;;;;;;;;;;;;;14.92;61.66;103220.13;1049961;28;824;-62
2022/01/23 06:57:13;;;;;;;;;;;;;;;14.93;61.57;103218.31;1049963;28;831;-62
2022/01/23 06:58:02;;;;;;;;;;;;;;;14.93;61.82;103224.56;1051718;28;1493;-61
2022/01/23 06:58:51;;;;;;;;;;;;;;;14.92;61.62;103222.81;1054329;28;946;-62
2022/01/23 06:59:40;;;;;;;;;;;;;;;14.92;61.89;103222.81;1053667;28;1795;-62
2022/01/23 07:00:28;;;;;;;;;;;;;;;14.93;61.82;103221.00;1050137;28;827;-62
2022/01/23 07:01:17;;;;;;;;;;;;;;;14.93;61.41;103224.56;1050078;28;781;-62
2022/01/23 07:02:06;;;;;;;;;;;;;;;14.93;61.49;103224.56;1052253;28;1471;-62
2022/01/23 07:02:55;;;;;;;;;;;;;;;14.96;61.34;103228.06;1054247;28;797;-62
2022/01/23 07:03:44;;;;;;;;;;;;;;;14.96;61.91;103228.06;1054339;28;857;-61